sensor_id;sensor_type;location;lat;lon;timestamp;temperature;humidity
80540;DHT22;69869;48.036;15.780;2023-05-18T00:02:03;18.30;59.30
80540;DHT22;69869;48.036;15.780;2023-05-18T00:04:29;18.30;59.30
80540;DHT22;69869;48.036;15.780;2023-05-18T00:06:57;18.30;59.30
80540;DHT22;69869;48.036;15.780;2023-05-18T00:09:26;18.30;59.30
80540;DHT22;69869;48.036;15.780;2023-05-18T00:11:52;18.30;59.40
80540;DHT22;69869;48.036;15.780;2023-05-18T00:14:18;18.30;59.30
80540;DHT22;69869;48.036;15.780;2023-05-18T00:16:44;18.30;59.30
80540;DHT22;69869;48.036;15.780;2023-05-18T00:19:10;18.30;59.30
80540;DHT22;69869;48.036;15.780;2023-05-18T00:21:40;18.30;59.40
80540;DHT22;69869;48.036;15.780;2023-05-18T00:24:07;18.30;59.40
80540;DHT22;69869;48.036;15.780;2023-05-18T00:26:36;18.30;59.40
80540;DHT22;69869;48.036;15.780;2023-05-18T00:29:02;18.30;59.40
80540;DHT22;69869;48.036;15.780;2023-05-18T00:31:28;18.30;59.40
80540;DHT22;69869;48.036;15.780;2023-05-18T00:33:53;18.30;59.40
80540;DHT22;69869;48.036;15.780;2023-05-18T00:36:19;18.30;59.40
80540;DHT22;69869;48.036;15.780;2023-05-18T00:38:45;18.30;59.40
80540;DHT22;69869;48.036;15.780;2023-05-18T00:41:10;18.30;59.50
80540;DHT22;69869;48.036;15.780;2023-05-18T00:43:39;18.30;59.50
80540;DHT22;69869;48.036;15.780;2023-05-18T00:46:05;18.30;59.50
80540;DHT22;69869;48.036;15.780;2023-05-18T00:48:31;18.30;59.50
80540;DHT22;69869;48.036;15.780;2023-05-18T00:50:57;18.30;60.00
80540;DHT22;69869;48.036;15.780;2023-05-18T00:53:22;18.30;59.50
80540;DHT22;69869;48.036;15.780;2023-05-18T00:55:48;18.30;59.50
80540;DHT22;69869;48.036;15.780;2023-05-18T00:58:15;18.30;59.50
80540;DHT22;69869;48.036;15.780;2023-05-18T01:00:41;18.30;59.60
80540;DHT22;69869;48.036;15.780;2023-05-18T01:03:07;18.30;59.50
80540;DHT22;69869;48.036;15.780;2023-05-18T01:05:35;18.30;59.60
80540;DHT22;69869;48.036;15.780;2023-05-18T01:08:01;18.30;59.60
80540;DHT22;69869;48.036;15.780;2023-05-18T01:10:29;18.30;59.60
80540;DHT22;69869;48.036;15.780;2023-05-18T01:13:03;18.30;59.60
80540;DHT22;69869;48.036;15.780;2023-05-18T01:15:31;18.30;59.60
80540;DHT22;69869;48.036;15.780;2023-05-18T01:18:27;18.30;59.60
80540;DHT22;69869;48.036;15.780;2023-05-18T01:26:34;18.30;59.70
80540;DHT22;69869;48.036;15.780;2023-05-18T01:29:05;18.30;59.70
80540;DHT22;69869;48.036;15.780;2023-05-18T01:31:33;18.30;59.70
80540;DHT22;69869;48.036;15.780;2023-05-18T01:33:59;18.30;59.60
80540;DHT22;69869;48.036;15.780;2023-05-18T01:36:25;18.30;59.70
80540;DHT22;69869;48.036;15.780;2023-05-18T01:38:52;18.30;59.70
80540;DHT22;69869;48.036;15.780;2023-05-18T01:41:23;18.30;59.70
80540;DHT22;69869;48.036;15.780;2023-05-18T01:43:59;18.30;59.70
80540;DHT22;69869;48.036;15.780;2023-05-18T01:52:22;18.30;59.80
80540;DHT22;69869;48.036;15.780;2023-05-18T01:54:51;18.30;59.80
80540;DHT22;69869;48.036;15.780;2023-05-18T01:57:20;18.30;59.70
80540;DHT22;69869;48.036;15.780;2023-05-18T01:59:47;18.30;59.70
80540;DHT22;69869;48.036;15.780;2023-05-18T02:02:14;18.30;59.80
80540;DHT22;69869;48.036;15.780;2023-05-18T02:04:40;18.30;59.90
80540;DHT22;69869;48.036;15.780;2023-05-18T02:07:06;18.30;59.80
80540;DHT22;69869;48.036;15.780;2023-05-18T02:09:31;18.30;59.80
80540;DHT22;69869;48.036;15.780;2023-05-18T02:11:57;18.30;59.80
80540;DHT22;69869;48.036;15.780;2023-05-18T02:14:23;18.30;59.90
80540;DHT22;69869;48.036;15.780;2023-05-18T02:16:49;18.30;59.90
80540;DHT22;69869;48.036;15.780;2023-05-18T02:19:18;18.30;59.90
80540;DHT22;69869;48.036;15.780;2023-05-18T02:21:44;18.30;59.90
80540;DHT22;69869;48.036;15.780;2023-05-18T02:24:10;18.30;59.90
80540;DHT22;69869;48.036;15.780;2023-05-18T02:26:37;18.30;59.90
80540;DHT22;69869;48.036;15.780;2023-05-18T02:29:04;18.30;60.00
80540;DHT22;69869;48.036;15.780;2023-05-18T02:31:36;18.30;60.00
80540;DHT22;69869;48.036;15.780;2023-05-18T02:34:02;18.30;60.00
80540;DHT22;69869;48.036;15.780;2023-05-18T02:36:28;18.30;60.00
80540;DHT22;69869;48.036;15.780;2023-05-18T02:39:05;18.20;59.90
80540;DHT22;69869;48.036;15.780;2023-05-18T02:41:32;18.30;60.00
80540;DHT22;69869;48.036;15.780;2023-05-18T02:43:58;18.30;60.00
80540;DHT22;69869;48.036;15.780;2023-05-18T02:46:24;18.30;60.00
80540;DHT22;69869;48.036;15.780;2023-05-18T02:48:50;18.20;59.90
80540;DHT22;69869;48.036;15.780;2023-05-18T02:51:15;18.20;59.90
80540;DHT22;69869;48.036;15.780;2023-05-18T02:53:42;18.30;60.00
80540;DHT22;69869;48.036;15.780;2023-05-18T02:56:10;18.30;60.00
80540;DHT22;69869;48.036;15.780;2023-05-18T02:58:37;18.30;60.10
80540;DHT22;69869;48.036;15.780;2023-05-18T03:01:03;18.30;60.00
80540;DHT22;69869;48.036;15.780;2023-05-18T03:03:32;18.30;60.00
80540;DHT22;69869;48.036;15.780;2023-05-18T03:05:59;18.30;60.00
80540;DHT22;69869;48.036;15.780;2023-05-18T03:08:27;18.30;60.00
80540;DHT22;69869;48.036;15.780;2023-05-18T03:10:53;18.30;60.00
80540;DHT22;69869;48.036;15.780;2023-05-18T03:13:19;18.30;60.00
80540;DHT22;69869;48.036;15.780;2023-05-18T03:15:45;18.30;60.00
80540;DHT22;69869;48.036;15.780;2023-05-18T03:18:11;18.30;60.80
80540;DHT22;69869;48.036;15.780;2023-05-18T03:20:37;18.30;60.10
80540;DHT22;69869;48.036;15.780;2023-05-18T03:23:04;18.30;60.10
80540;DHT22;69869;48.036;15.780;2023-05-18T03:25:29;18.30;60.10
80540;DHT22;69869;48.036;15.780;2023-05-18T03:27:57;18.30;60.10
80540;DHT22;69869;48.036;15.780;2023-05-18T03:30:23;18.30;60.10
80540;DHT22;69869;48.036;15.780;2023-05-18T03:32:49;18.30;60.10
80540;DHT22;69869;48.036;15.780;2023-05-18T03:35:15;18.30;60.10
80540;DHT22;69869;48.036;15.780;2023-05-18T03:37:41;18.30;60.10
80540;DHT22;69869;48.036;15.780;2023-05-18T03:40:12;18.20;60.00
80540;DHT22;69869;48.036;15.780;2023-05-18T03:42:39;18.30;60.20
80540;DHT22;69869;48.036;15.780;2023-05-18T03:45:07;18.20;60.10
80540;DHT22;69869;48.036;15.780;2023-05-18T03:47:32;18.30;60.20
80540;DHT22;69869;48.036;15.780;2023-05-18T03:49:58;18.30;60.20
80540;DHT22;69869;48.036;15.780;2023-05-18T03:52:24;18.20;60.00
80540;DHT22;69869;48.036;15.780;2023-05-18T03:54:50;18.20;60.10
80540;DHT22;69869;48.036;15.780;2023-05-18T03:57:17;18.30;60.20
80540;DHT22;69869;48.036;15.780;2023-05-18T03:59:43;18.30;60.20
80540;DHT22;69869;48.036;15.780;2023-05-18T04:02:10;18.30;60.20
80540;DHT22;69869;48.036;15.780;2023-05-18T04:04:37;18.20;60.10
80540;DHT22;69869;48.036;15.780;2023-05-18T04:07:07;18.30;60.20
80540;DHT22;69869;48.036;15.780;2023-05-18T04:09:34;18.30;60.20
80540;DHT22;69869;48.036;15.780;2023-05-18T04:12:00;18.30;60.20
80540;DHT22;69869;48.036;15.780;2023-05-18T04:14:27;18.20;60.10
80540;DHT22;69869;48.036;15.780;2023-05-18T04:16:54;18.20;60.10
80540;DHT22;69869;48.036;15.780;2023-05-18T04:19:21;18.30;60.20
80540;DHT22;69869;48.036;15.780;2023-05-18T04:21:47;18.20;60.20
80540;DHT22;69869;48.036;15.780;2023-05-18T04:24:13;18.20;60.10
80540;DHT22;69869;48.036;15.780;2023-05-18T04:26:40;18.30;60.20
80540;DHT22;69869;48.036;15.780;2023-05-18T04:29:07;18.20;60.10
80540;DHT22;69869;48.036;15.780;2023-05-18T04:31:35;18.30;60.30
80540;DHT22;69869;48.036;15.780;2023-05-18T04:34:01;18.20;61.00
80540;DHT22;69869;48.036;15.780;2023-05-18T04:36:27;18.30;60.30
80540;DHT22;69869;48.036;15.780;2023-05-18T04:38:58;18.20;60.30
80540;DHT22;69869;48.036;15.780;2023-05-18T04:41:26;18.20;60.30
80540;DHT22;69869;48.036;15.780;2023-05-18T04:43:52;18.20;60.40
80540;DHT22;69869;48.036;15.780;2023-05-18T04:46:18;18.20;60.40
80540;DHT22;69869;48.036;15.780;2023-05-18T04:48:46;18.20;60.40
80540;DHT22;69869;48.036;15.780;2023-05-18T04:51:16;18.20;61.10
80540;DHT22;69869;48.036;15.780;2023-05-18T04:53:49;18.20;60.40
80540;DHT22;69869;48.036;15.780;2023-05-18T04:56:15;18.30;60.50
80540;DHT22;69869;48.036;15.780;2023-05-18T04:58:41;18.30;60.50
80540;DHT22;69869;48.036;15.780;2023-05-18T05:01:11;18.20;60.40
80540;DHT22;69869;48.036;15.780;2023-05-18T05:03:39;18.20;60.40
80540;DHT22;69869;48.036;15.780;2023-05-18T05:06:05;18.20;60.40
80540;DHT22;69869;48.036;15.780;2023-05-18T05:08:31;18.20;60.40
80540;DHT22;69869;48.036;15.780;2023-05-18T05:10:57;18.30;60.50
80540;DHT22;69869;48.036;15.780;2023-05-18T05:13:22;18.30;60.50
80540;DHT22;69869;48.036;15.780;2023-05-18T05:15:48;18.20;60.40
80540;DHT22;69869;48.036;15.780;2023-05-18T05:18:14;18.20;60.40
80540;DHT22;69869;48.036;15.780;2023-05-18T05:20:40;18.20;60.50
80540;DHT22;69869;48.036;15.780;2023-05-18T05:23:05;18.20;60.50
80540;DHT22;69869;48.036;15.780;2023-05-18T05:25:31;18.20;60.50
80540;DHT22;69869;48.036;15.780;2023-05-18T05:27:57;18.20;60.50
80540;DHT22;69869;48.036;15.780;2023-05-18T05:30:23;18.20;60.40
80540;DHT22;69869;48.036;15.780;2023-05-18T05:32:49;18.20;60.50
80540;DHT22;69869;48.036;15.780;2023-05-18T05:35:15;18.20;60.50
80540;DHT22;69869;48.036;15.780;2023-05-18T05:37:40;18.20;60.60
80540;DHT22;69869;48.036;15.780;2023-05-18T05:40:07;18.20;60.60
80540;DHT22;69869;48.036;15.780;2023-05-18T05:42:34;18.20;60.60
80540;DHT22;69869;48.036;15.780;2023-05-18T05:45:00;18.20;60.60
80540;DHT22;69869;48.036;15.780;2023-05-18T05:47:26;18.20;60.60
80540;DHT22;69869;48.036;15.780;2023-05-18T05:49:51;18.20;60.60
80540;DHT22;69869;48.036;15.780;2023-05-18T05:52:17;18.20;60.70
80540;DHT22;69869;48.036;15.780;2023-05-18T05:54:43;18.20;60.60
80540;DHT22;69869;48.036;15.780;2023-05-18T05:57:09;18.20;60.80
80540;DHT22;69869;48.036;15.780;2023-05-18T05:59:34;18.20;60.60
80540;DHT22;69869;48.036;15.780;2023-05-18T06:02:00;18.20;60.60
80540;DHT22;69869;48.036;15.780;2023-05-18T06:04:27;18.20;60.60
80540;DHT22;69869;48.036;15.780;2023-05-18T06:06:53;18.20;60.70
80540;DHT22;69869;48.036;15.780;2023-05-18T06:09:18;18.20;60.70
80540;DHT22;69869;48.036;15.780;2023-05-18T06:11:44;18.20;60.70
80540;DHT22;69869;48.036;15.780;2023-05-18T06:14:10;18.20;60.70
80540;DHT22;69869;48.036;15.780;2023-05-18T06:16:36;18.20;60.70
80540;DHT22;69869;48.036;15.780;2023-05-18T06:19:02;18.20;60.70
80540;DHT22;69869;48.036;15.780;2023-05-18T06:21:28;18.20;60.70
80540;DHT22;69869;48.036;15.780;2023-05-18T06:23:54;18.20;60.70
80540;DHT22;69869;48.036;15.780;2023-05-18T06:26:21;18.20;60.70
80540;DHT22;69869;48.036;15.780;2023-05-18T06:28:47;18.20;60.70
80540;DHT22;69869;48.036;15.780;2023-05-18T06:31:14;18.20;60.70
80540;DHT22;69869;48.036;15.780;2023-05-18T06:33:40;18.20;60.80
80540;DHT22;69869;48.036;15.780;2023-05-18T06:36:06;18.20;60.60
80540;DHT22;69869;48.036;15.780;2023-05-18T06:38:31;18.20;60.70
80540;DHT22;69869;48.036;15.780;2023-05-18T06:40:57;18.20;60.70
80540;DHT22;69869;48.036;15.780;2023-05-18T06:43:23;18.20;60.70
80540;DHT22;69869;48.036;15.780;2023-05-18T06:45:55;18.20;60.80
80540;DHT22;69869;48.036;15.780;2023-05-18T06:48:24;18.20;60.70
80540;DHT22;69869;48.036;15.780;2023-05-18T06:50:50;18.20;60.70
80540;DHT22;69869;48.036;15.780;2023-05-18T06:53:15;18.20;60.80
80540;DHT22;69869;48.036;15.780;2023-05-18T06:55:41;18.20;60.80
80540;DHT22;69869;48.036;15.780;2023-05-18T06:58:07;18.20;60.80
80540;DHT22;69869;48.036;15.780;2023-05-18T07:00:33;18.20;60.80
80540;DHT22;69869;48.036;15.780;2023-05-18T07:02:58;18.20;60.80
80540;DHT22;69869;48.036;15.780;2023-05-18T07:05:24;18.20;60.90
80540;DHT22;69869;48.036;15.780;2023-05-18T07:07:50;18.20;60.80
80540;DHT22;69869;48.036;15.780;2023-05-18T07:10:16;18.20;60.80
80540;DHT22;69869;48.036;15.780;2023-05-18T07:12:41;18.20;60.80
80540;DHT22;69869;48.036;15.780;2023-05-18T07:15:07;18.20;60.90
80540;DHT22;69869;48.036;15.780;2023-05-18T07:17:33;18.20;60.80
80540;DHT22;69869;48.036;15.780;2023-05-18T07:19:59;18.20;60.90
80540;DHT22;69869;48.036;15.780;2023-05-18T07:22:25;18.20;60.90
80540;DHT22;69869;48.036;15.780;2023-05-18T07:24:51;18.20;60.90
80540;DHT22;69869;48.036;15.780;2023-05-18T07:27:16;18.20;60.90
80540;DHT22;69869;48.036;15.780;2023-05-18T07:29:42;18.20;60.90
80540;DHT22;69869;48.036;15.780;2023-05-18T07:32:08;18.20;60.90
80540;DHT22;69869;48.036;15.780;2023-05-18T07:34:34;18.20;60.90
80540;DHT22;69869;48.036;15.780;2023-05-18T07:36:59;18.20;60.90
80540;DHT22;69869;48.036;15.780;2023-05-18T07:39:25;18.20;60.90
80540;DHT22;69869;48.036;15.780;2023-05-18T07:41:56;18.20;60.90
80540;DHT22;69869;48.036;15.780;2023-05-18T07:44:21;18.20;61.00
80540;DHT22;69869;48.036;15.780;2023-05-18T07:46:47;18.20;60.90
80540;DHT22;69869;48.036;15.780;2023-05-18T07:49:13;18.20;61.00
80540;DHT22;69869;48.036;15.780;2023-05-18T07:51:38;18.20;61.00
80540;DHT22;69869;48.036;15.780;2023-05-18T07:54:06;18.20;61.00
80540;DHT22;69869;48.036;15.780;2023-05-18T07:56:33;18.20;61.00
80540;DHT22;69869;48.036;15.780;2023-05-18T07:58:59;18.20;61.00
80540;DHT22;69869;48.036;15.780;2023-05-18T08:01:24;18.20;61.00
80540;DHT22;69869;48.036;15.780;2023-05-18T08:03:53;18.20;61.00
80540;DHT22;69869;48.036;15.780;2023-05-18T08:06:19;18.20;61.00
80540;DHT22;69869;48.036;15.780;2023-05-18T08:08:45;18.20;61.00
80540;DHT22;69869;48.036;15.780;2023-05-18T08:11:11;18.20;61.10
80540;DHT22;69869;48.036;15.780;2023-05-18T08:13:37;18.20;61.10
80540;DHT22;69869;48.036;15.780;2023-05-18T08:16:02;18.20;61.10
80540;DHT22;69869;48.036;15.780;2023-05-18T08:18:28;18.00;57.20
80540;DHT22;69869;48.036;15.780;2023-05-18T08:20:54;17.80;56.50
80540;DHT22;69869;48.036;15.780;2023-05-18T08:23:20;17.80;56.60
80540;DHT22;69869;48.036;15.780;2023-05-18T08:25:46;17.80;56.70
80540;DHT22;69869;48.036;15.780;2023-05-18T08:28:12;17.80;56.40
80540;DHT22;69869;48.036;15.780;2023-05-18T08:30:37;17.80;56.20
80540;DHT22;69869;48.036;15.780;2023-05-18T08:33:03;17.80;56.20
80540;DHT22;69869;48.036;15.780;2023-05-18T08:35:29;17.80;56.10
80540;DHT22;69869;48.036;15.780;2023-05-18T08:37:55;17.70;55.90
80540;DHT22;69869;48.036;15.780;2023-05-18T08:40:21;17.70;55.80
80540;DHT22;69869;48.036;15.780;2023-05-18T08:42:51;17.70;55.70
80540;DHT22;69869;48.036;15.780;2023-05-18T08:45:31;17.70;55.60
80540;DHT22;69869;48.036;15.780;2023-05-18T08:48:02;17.70;55.50
80540;DHT22;69869;48.036;15.780;2023-05-18T08:50:30;17.70;55.60
80540;DHT22;69869;48.036;15.780;2023-05-18T08:53:00;17.60;55.50
80540;DHT22;69869;48.036;15.780;2023-05-18T08:55:27;17.60;55.40
80540;DHT22;69869;48.036;15.780;2023-05-18T08:57:56;17.70;55.50
80540;DHT22;69869;48.036;15.780;2023-05-18T09:00:22;17.60;55.30
80540;DHT22;69869;48.036;15.780;2023-05-18T09:02:51;17.60;55.30
80540;DHT22;69869;48.036;15.780;2023-05-18T09:05:17;17.60;55.30
80540;DHT22;69869;48.036;15.780;2023-05-18T09:07:43;17.60;55.30
80540;DHT22;69869;48.036;15.780;2023-05-18T09:10:10;17.50;55.70
80540;DHT22;69869;48.036;15.780;2023-05-18T09:12:38;17.60;55.10
80540;DHT22;69869;48.036;15.780;2023-05-18T09:15:07;17.60;55.10
80540;DHT22;69869;48.036;15.780;2023-05-18T09:17:34;17.50;55.00
80540;DHT22;69869;48.036;15.780;2023-05-18T09:20:00;17.50;54.90
80540;DHT22;69869;48.036;15.780;2023-05-18T09:22:26;17.50;54.80
80540;DHT22;69869;48.036;15.780;2023-05-18T09:24:52;17.50;54.90
80540;DHT22;69869;48.036;15.780;2023-05-18T09:27:21;17.50;54.90
80540;DHT22;69869;48.036;15.780;2023-05-18T09:29:52;17.40;54.90
80540;DHT22;69869;48.036;15.780;2023-05-18T09:32:19;17.40;54.90
80540;DHT22;69869;48.036;15.780;2023-05-18T09:34:45;17.50;55.00
80540;DHT22;69869;48.036;15.780;2023-05-18T09:37:15;17.40;54.90
80540;DHT22;69869;48.036;15.780;2023-05-18T09:39:41;17.40;54.90
80540;DHT22;69869;48.036;15.780;2023-05-18T09:42:07;17.40;55.00
80540;DHT22;69869;48.036;15.780;2023-05-18T09:44:33;17.40;55.00
80540;DHT22;69869;48.036;15.780;2023-05-18T09:47:00;17.40;55.00
80540;DHT22;69869;48.036;15.780;2023-05-18T09:49:28;17.40;55.00
80540;DHT22;69869;48.036;15.780;2023-05-18T09:51:56;17.40;54.90
80540;DHT22;69869;48.036;15.780;2023-05-18T09:54:21;17.40;54.90
80540;DHT22;69869;48.036;15.780;2023-05-18T09:56:48;17.40;55.00
80540;DHT22;69869;48.036;15.780;2023-05-18T09:59:15;17.40;54.80
80540;DHT22;69869;48.036;15.780;2023-05-18T10:02:00;17.40;54.80
80540;DHT22;69869;48.036;15.780;2023-05-18T10:04:36;17.30;54.80
80540;DHT22;69869;48.036;15.780;2023-05-18T10:07:08;17.30;55.40
80540;DHT22;69869;48.036;15.780;2023-05-18T10:09:34;17.30;54.90
80540;DHT22;69869;48.036;15.780;2023-05-18T10:11:59;17.30;54.90
80540;DHT22;69869;48.036;15.780;2023-05-18T10:14:26;17.30;54.90
80540;DHT22;69869;48.036;15.780;2023-05-18T10:16:54;17.30;54.90
80540;DHT22;69869;48.036;15.780;2023-05-18T10:19:21;17.30;54.90
80540;DHT22;69869;48.036;15.780;2023-05-18T10:21:47;17.30;54.90
80540;DHT22;69869;48.036;15.780;2023-05-18T10:24:14;17.30;54.80
80540;DHT22;69869;48.036;15.780;2023-05-18T10:26:43;17.30;54.80
80540;DHT22;69869;48.036;15.780;2023-05-18T10:29:09;17.20;54.60
80540;DHT22;69869;48.036;15.780;2023-05-18T10:31:36;17.20;54.70
80540;DHT22;69869;48.036;15.780;2023-05-18T10:34:03;17.20;54.80
80540;DHT22;69869;48.036;15.780;2023-05-18T10:36:30;17.20;54.70
80540;DHT22;69869;48.036;15.780;2023-05-18T10:38:59;17.20;54.70
80540;DHT22;69869;48.036;15.780;2023-05-18T10:41:29;17.20;54.90
80540;DHT22;69869;48.036;15.780;2023-05-18T10:43:57;17.20;54.80
80540;DHT22;69869;48.036;15.780;2023-05-18T10:46:29;17.20;54.80
80540;DHT22;69869;48.036;15.780;2023-05-18T10:48:56;17.20;54.80
80540;DHT22;69869;48.036;15.780;2023-05-18T10:51:24;17.20;54.80
80540;DHT22;69869;48.036;15.780;2023-05-18T10:53:51;17.20;54.60
80540;DHT22;69869;48.036;15.780;2023-05-18T10:56:17;17.20;54.70
80540;DHT22;69869;48.036;15.780;2023-05-18T10:58:44;17.20;54.80
80540;DHT22;69869;48.036;15.780;2023-05-18T11:01:10;17.20;54.60
80540;DHT22;69869;48.036;15.780;2023-05-18T11:03:38;17.10;54.50
80540;DHT22;69869;48.036;15.780;2023-05-18T11:06:10;17.10;54.40
80540;DHT22;69869;48.036;15.780;2023-05-18T11:08:47;17.10;54.30
80540;DHT22;69869;48.036;15.780;2023-05-18T11:11:13;17.10;54.10
80540;DHT22;69869;48.036;15.780;2023-05-18T11:13:45;17.10;54.10
80540;DHT22;69869;48.036;15.780;2023-05-18T11:16:13;17.10;54.20
80540;DHT22;69869;48.036;15.780;2023-05-18T11:18:44;17.10;54.40
80540;DHT22;69869;48.036;15.780;2023-05-18T11:24:22;17.00;54.30
80540;DHT22;69869;48.036;15.780;2023-05-18T11:26:49;17.10;54.50
80540;DHT22;69869;48.036;15.780;2023-05-18T11:29:34;17.10;54.50
80540;DHT22;69869;48.036;15.780;2023-05-18T11:32:00;17.00;54.40
80540;DHT22;69869;48.036;15.780;2023-05-18T11:34:36;17.10;54.50
80540;DHT22;69869;48.036;15.780;2023-05-18T11:37:03;17.10;54.60
80540;DHT22;69869;48.036;15.780;2023-05-18T11:39:31;17.20;54.60
80540;DHT22;69869;48.036;15.780;2023-05-18T11:42:00;17.20;54.20
80540;DHT22;69869;48.036;15.780;2023-05-18T11:44:27;17.20;54.20
80540;DHT22;69869;48.036;15.780;2023-05-18T11:47:02;17.20;54.20
80540;DHT22;69869;48.036;15.780;2023-05-18T11:49:51;17.20;54.20
80540;DHT22;69869;48.036;15.780;2023-05-18T11:52:22;17.20;53.80
80540;DHT22;69869;48.036;15.780;2023-05-18T11:54:56;17.20;54.10
80540;DHT22;69869;48.036;15.780;2023-05-18T11:57:24;17.20;54.40
80540;DHT22;69869;48.036;15.780;2023-05-18T11:59:55;17.30;54.40
80540;DHT22;69869;48.036;15.780;2023-05-18T12:02:25;17.30;54.70
80540;DHT22;69869;48.036;15.780;2023-05-18T12:04:53;17.40;55.40
80540;DHT22;69869;48.036;15.780;2023-05-18T12:07:20;17.40;56.20
80540;DHT22;69869;48.036;15.780;2023-05-18T12:09:47;17.40;55.80
80540;DHT22;69869;48.036;15.780;2023-05-18T12:12:14;17.50;55.90
80540;DHT22;69869;48.036;15.780;2023-05-18T12:14:59;17.40;56.00
80540;DHT22;69869;48.036;15.780;2023-05-18T12:17:45;17.40;56.90
80540;DHT22;69869;48.036;15.780;2023-05-18T12:20:16;17.50;56.60
80540;DHT22;69869;48.036;15.780;2023-05-18T12:22:48;17.40;56.70
80540;DHT22;69869;48.036;15.780;2023-05-18T12:25:25;17.40;56.80
80540;DHT22;69869;48.036;15.780;2023-05-18T12:27:52;17.40;56.90
80540;DHT22;69869;48.036;15.780;2023-05-18T12:30:22;17.40;57.00
80540;DHT22;69869;48.036;15.780;2023-05-18T12:32:50;17.40;57.00
80540;DHT22;69869;48.036;15.780;2023-05-18T12:35:16;17.40;57.10
80540;DHT22;69869;48.036;15.780;2023-05-18T12:37:43;17.40;57.10
80540;DHT22;69869;48.036;15.780;2023-05-18T12:40:10;17.40;57.20
80540;DHT22;69869;48.036;15.780;2023-05-18T12:42:36;17.40;57.20
80540;DHT22;69869;48.036;15.780;2023-05-18T12:45:05;17.40;57.30
80540;DHT22;69869;48.036;15.780;2023-05-18T12:47:32;17.40;57.30
80540;DHT22;69869;48.036;15.780;2023-05-18T12:50:02;17.40;57.30
80540;DHT22;69869;48.036;15.780;2023-05-18T12:52:28;17.40;57.30
80540;DHT22;69869;48.036;15.780;2023-05-18T12:54:55;17.40;57.30
80540;DHT22;69869;48.036;15.780;2023-05-18T12:57:25;17.40;57.40
80540;DHT22;69869;48.036;15.780;2023-05-18T12:59:54;17.40;57.40
80540;DHT22;69869;48.036;15.780;2023-05-18T13:02:27;17.40;57.40
80540;DHT22;69869;48.036;15.780;2023-05-18T13:05:02;17.40;57.40
80540;DHT22;69869;48.036;15.780;2023-05-18T13:07:28;17.40;57.50
80540;DHT22;69869;48.036;15.780;2023-05-18T13:10:00;17.40;57.50
80540;DHT22;69869;48.036;15.780;2023-05-18T13:12:55;17.40;57.60
80540;DHT22;69869;48.036;15.780;2023-05-18T13:15:26;17.40;57.60
80540;DHT22;69869;48.036;15.780;2023-05-18T13:17:59;17.40;57.70
80540;DHT22;69869;48.036;15.780;2023-05-18T13:20:42;17.40;57.70
80540;DHT22;69869;48.036;15.780;2023-05-18T13:23:14;17.40;57.70
80540;DHT22;69869;48.036;15.780;2023-05-18T13:25:41;17.40;57.70
80540;DHT22;69869;48.036;15.780;2023-05-18T13:28:08;17.40;57.80
80540;DHT22;69869;48.036;15.780;2023-05-18T13:30:37;17.40;57.80
80540;DHT22;69869;48.036;15.780;2023-05-18T13:33:05;17.40;57.80
80540;DHT22;69869;48.036;15.780;2023-05-18T13:35:36;17.40;57.70
80540;DHT22;69869;48.036;15.780;2023-05-18T13:38:02;17.40;57.80
80540;DHT22;69869;48.036;15.780;2023-05-18T13:40:28;17.40;57.70
80540;DHT22;69869;48.036;15.780;2023-05-18T13:42:54;17.40;57.90
80540;DHT22;69869;48.036;15.780;2023-05-18T13:45:20;17.40;57.90
80540;DHT22;69869;48.036;15.780;2023-05-18T13:47:46;17.40;57.90
80540;DHT22;69869;48.036;15.780;2023-05-18T13:50:15;17.40;58.00
80540;DHT22;69869;48.036;15.780;2023-05-18T13:52:42;17.40;58.10
80540;DHT22;69869;48.036;15.780;2023-05-18T13:55:08;17.40;58.20
80540;DHT22;69869;48.036;15.780;2023-05-18T13:57:34;17.40;58.10
80540;DHT22;69869;48.036;15.780;2023-05-18T14:00:00;17.40;58.10
80540;DHT22;69869;48.036;15.780;2023-05-18T14:02:29;17.40;58.10
80540;DHT22;69869;48.036;15.780;2023-05-18T14:04:55;17.40;58.00
80540;DHT22;69869;48.036;15.780;2023-05-18T14:07:23;17.40;58.00
80540;DHT22;69869;48.036;15.780;2023-05-18T14:09:49;17.40;58.00
80540;DHT22;69869;48.036;15.780;2023-05-18T14:12:15;17.50;57.80
80540;DHT22;69869;48.036;15.780;2023-05-18T14:14:41;17.50;58.00
80540;DHT22;69869;48.036;15.780;2023-05-18T14:17:08;17.80;60.30
80540;DHT22;69869;48.036;15.780;2023-05-18T14:19:34;17.90;59.50
80540;DHT22;69869;48.036;15.780;2023-05-18T14:22:00;18.00;58.40
80540;DHT22;69869;48.036;15.780;2023-05-18T14:24:26;18.00;58.40
80540;DHT22;69869;48.036;15.780;2023-05-18T14:26:52;18.00;58.00
80540;DHT22;69869;48.036;15.780;2023-05-18T14:29:21;18.00;58.00
80540;DHT22;69869;48.036;15.780;2023-05-18T14:31:46;18.00;58.60
80540;DHT22;69869;48.036;15.780;2023-05-18T14:34:12;18.00;58.30
80540;DHT22;69869;48.036;15.780;2023-05-18T14:36:38;18.00;59.00
80540;DHT22;69869;48.036;15.780;2023-05-18T14:39:04;18.10;60.00
80540;DHT22;69869;48.036;15.780;2023-05-18T14:41:29;18.00;59.50
80540;DHT22;69869;48.036;15.780;2023-05-18T14:43:55;18.00;58.70
80540;DHT22;69869;48.036;15.780;2023-05-18T14:46:21;18.00;57.90
80540;DHT22;69869;48.036;15.780;2023-05-18T14:48:47;18.00;58.20
80540;DHT22;69869;48.036;15.780;2023-05-18T14:51:13;18.00;58.20
80540;DHT22;69869;48.036;15.780;2023-05-18T14:53:40;18.00;58.20
80540;DHT22;69869;48.036;15.780;2023-05-18T14:56:06;18.00;58.10
80540;DHT22;69869;48.036;15.780;2023-05-18T14:58:34;18.00;58.10
80540;DHT22;69869;48.036;15.780;2023-05-18T15:01:00;18.00;58.00
80540;DHT22;69869;48.036;15.780;2023-05-18T15:03:25;18.00;57.90
80540;DHT22;69869;48.036;15.780;2023-05-18T15:05:51;18.00;57.90
80540;DHT22;69869;48.036;15.780;2023-05-18T15:08:17;18.00;57.80
80540;DHT22;69869;48.036;15.780;2023-05-18T15:10:43;18.00;57.90
80540;DHT22;69869;48.036;15.780;2023-05-18T15:13:08;18.00;57.70
80540;DHT22;69869;48.036;15.780;2023-05-18T15:15:34;18.00;57.70
80540;DHT22;69869;48.036;15.780;2023-05-18T15:18:00;18.00;57.70
80540;DHT22;69869;48.036;15.780;2023-05-18T15:20:26;18.00;57.60
80540;DHT22;69869;48.036;15.780;2023-05-18T15:22:52;18.00;57.60
80540;DHT22;69869;48.036;15.780;2023-05-18T15:25:19;18.00;57.50
80540;DHT22;69869;48.036;15.780;2023-05-18T15:27:45;18.00;57.50
80540;DHT22;69869;48.036;15.780;2023-05-18T15:30:13;18.00;57.40
80540;DHT22;69869;48.036;15.780;2023-05-18T15:32:40;18.00;57.40